ADDS METAR Data INFO
IDs: Format: Raw Decoded Include TAF

Data at: 0213 UTC 17 Aug 2018

PALH 170153Z 19005KT 10SM BKN033 BKN075 17/07 A2999 RMK AO2 SLP158 T01670072
PALH 170053Z VRB05KT 10SM FEW075 17/09 A2999 RMK AO2 SLP158 T01720094
PALH 162353Z 28006KT 10SM CLR 17/08 A2999 RMK AO2 SLP158 T01720083 10172 20117 56002
PALH 162253Z 31007KT 10SM FEW030 17/09 A3000 RMK AO2 SLP158 T01670089
PALH 162153Z 34007KT 10SM SCT031 BKN065 16/09 A3000 RMK AO2 SLP159 T01610094
PALH 162053Z VRB03KT 10SM FEW027 BKN070 14/09 A3000 RMK AO2 SLP160 T01440089 50001
PALH 161953Z 21003KT 10SM FEW018 OVC065 13/09 A3000 RMK AO2 SLP160 T01330094
PALH 161853Z 22005KT 10SM FEW019 OVC060 13/09 A3000 RMK AO2 SLP159 T01280089
PALH 161832Z 20006KT 10SM FEW018 SCT026 OVC060 13/09 A3000 RMK AO2 T01280094
PALH 161753Z VRB04KT 10SM BKN017 OVC060 12/09 A3000 RMK AO2 SLP158 60001 T01220094 10122 20106 51003
PALH 161736Z 00000KT 10SM FEW011 BKN019 OVC060 12/10 A3000 RMK AO2 T01220100
PALH 161653Z 16003KT 10SM FEW017 OVC060 11/10 A3000 RMK AO2 RAB1558E43 SLP158 P0000 T01110100
PALH 161553Z 16003KT 10SM OVC060 11/09 A2999 RMK AO2 RAB1459E52 SLP157 P0001 T01060094
PALH 161453Z 17003KT 10SM FEW016 OVC055 11/09 A2999 RMK AO2 RAB26E47 SLP155 P0000 60000 T01060089 51005
PALH 161353Z 20008G14KT 10SM OVC050 11/08 A2999 RMK AO2 SLP154 T01110083
PALH 161253Z 19008G15KT 10SM OVC050 11/08 A2998 RMK AO2 SLP153 T01110083
PALH 161153Z 19010G20KT 10SM OVC060 12/08 A2997 RMK AO2 RAE1058B39E43 SLP151 P0000 60001 70002 T01170083 10139 20117 51006
PALH 161053Z 20010G20KT 10SM -RA OVC060 12/08 A2997 RMK AO2 SLP149 P0001 T01170083
PALH 160953Z 20010G17KT 10SM -RA OVC055 12/09 A2997 RMK AO2 SLP148 P0000 T01170094
PALH 160853Z 20013G23KT 10SM -RA OVC060 13/08 A2996 RMK AO2 RAB09 SLP145 P0000 60000 T01280078 401500117 51007
PALH 160753Z 19011G20KT 10SM BKN055 OVC070 13/08 A2995 RMK AO2 SLP143 T01330083
PALH 160653Z 18008G20KT 10SM OVC050 13/08 A2995 RMK AO2 SLP141 T01330083
PALH 160553Z 18008KT 10SM OVC055 14/08 A2994 RMK AO2 RAB05E17 SLP138 P0000 60000 T01390078 10150 20139 53003
PALH 160453Z 18004KT 10SM BKN050 OVC060 14/11 A2993 RMK AO2 RAB01E12 SLP136 P0000 T01440106
PALH 160353Z 00000KT 10SM OVC055 14/11 A2992 RMK AO2 RAE11 SLP134 P0000 T01440111
PALH 160253Z 35003KT 10SM -RA BKN060 OVC070 14/11 A2993 RMK AO2 RAB46 SLP135 P0000 60000 T01440111 56007
PALH 160153Z 33004KT 10SM OVC060 15/11 A2993 RMK AO2 RAB0058E09 SLP135 P0000 T01500111
PALH 160053Z 35003KT 10SM BKN060 OVC075 14/09 A2994 RMK AO2 RAB30E40 SLP139 P0000 T01440094
PALH 152353Z 04004KT 10SM OVC055 14/08 A2995 RMK AO2 SLP142 T01440078 10150 20122 58002
PALH 152253Z 00000KT 10SM OVC055 14/08 A2995 RMK AO2 SLP144 T01440078
PALH 152210Z 30004KT 10SM SCT023 OVC060 14/08 A2996 RMK AO2 T01440083
PALH 152153Z 31005KT 10SM BKN023 OVC049 14/09 A2996 RMK AO2 SLP145 T01440089
PALH 152053Z 30006KT 10SM BKN024 OVC065 13/09 A2995 RMK AO2 SLP144 T01330094 51007
PALH 152045Z 31006KT 10SM BKN024 OVC045 14/09 A2995 RMK AO2 T01390094
PALH 152010Z 30006KT 10SM SCT022 OVC045 13/10 A2995 RMK AO2 T01330100
PALH 151953Z 30005KT 10SM OVC022 13/09 A2995 RMK AO2 SLP143 T01280094
PALH 151900Z 25005KT 10SM FEW013 BKN022 OVC055 13/11 A2994 RMK AO2 T01280106
PALH 151853Z VRB03KT 10SM SCT024 BKN043 OVC050 13/11 A2994 RMK AO2 SLP140 T01280106
PALH 151811Z 17004KT 10SM FEW010 OVC035 13/11 A2994 RMK AO2 T01280111
PALH 151753Z 00000KT 10SM BKN010 OVC035 12/11 A2993 RMK AO2 RAB02E16 SLP137 P0000 60001 T01220111 10122 20117 52008
PALH 151732Z 00000KT 10SM SCT007 OVC013 12/11 A2993 RMK AO2 RAB02E16 P0000 T01220106
PALH 151724Z 00000KT 10SM SCT007 BKN015 OVC060 12/11 A2993 RMK AO2 RAB02E16 P0000 T01220111
PALH 151715Z 00000KT 10SM -RA BKN007 BKN015 OVC060 12/11 A2993 RMK AO2 RAB02 P0000 T01220106
PALH 151706Z 00000KT 10SM -RA SCT007 SCT048 OVC060 12/11 A2993 RMK AO2 RAB02 P0000 T01170106
PALH 151653Z 00000KT 10SM FEW047 OVC060 12/11 A2993 RMK AO2 SLP134 T01170111
PALH 151553Z 04003KT 10SM FEW046 BKN065 OVC080 12/11 A2992 RMK AO2 RAB18E36 SLP131 P0000 T01170106
PALH 151453Z 00000KT 10SM FEW042 BKN050 OVC090 12/11 A2991 RMK AO2 SLP129 60001 T01170106 52007